Aviation Digital Data Service (ADDS)

Output produced by TAFs form (2312 UTC 15 July 2018)
found at http://www.aviationweather.gov/adds/tafs/
 
KBJC 152250Z 34008KT 4SM RA BKN006 BKN013 OVC017 18/17 A3034
KBJC 152218Z 1522/1618 35009KT P6SM VCSH BKN011 BKN040 OVC090 
     TEMPO 1522/1601 5SM -SHRA OVC009 
     FM160200 35007KT P6SM BKN010 OVC045 
     FM160500 32007KT P6SM SCT010 BKN050 
     FM160900 25007KT P6SM SCT050 BKN120